Time;durP1;ratioP1;P1;durP2;ratioP2;P2;SDS_P1;SDS_P2;PMS_P1;PMS_P2;Temp;Humidity;BMP_temperature;BMP_pressure;BME280_temperature;BME280_humidity;BME280_pressure;Samples;Min_cycle;Max_cycle;Signal;HPM_P1;HPM_P2
2020/12/23 00:04:34;;;;;;;13.02;11.82;;;;;;;;;;4698606;28;20085;-61
2020/12/23 00:07:04;;;;;;;12.52;11.32;;;;;;;;;;4205238;34;20217;-64
2020/12/23 00:09:30;;;;;;;13.70;12.37;;;;;;;;;;4176916;34;20130;-64
2020/12/23 00:11:56;;;;;;;14.65;12.50;;;;;;;;;;4191343;34;20459;-64
2020/12/23 00:14:22;;;;;;;12.88;11.63;;;;;;;;;;4191146;34;20550;-65
2020/12/23 00:16:48;;;;;;;13.05;11.85;;;;;;;;;;4190956;34;20142;-64
2020/12/23 00:19:14;;;;;;;12.23;11.00;;;;;;;;;;4178500;34;20181;-64
2020/12/23 00:21:39;;;;;;;13.80;12.48;;;;;;;;;;4178412;34;20106;-64
2020/12/23 00:24:05;;;;;;;13.32;11.95;;;;;;;;;;4191029;34;20573;-64
2020/12/23 00:26:31;;;;;;;12.85;11.65;;;;;;;;;;4178465;34;20145;-64
2020/12/23 00:28:57;;;;;;;11.82;10.73;;;;;;;;;;4178420;34;20142;-64
2020/12/23 00:31:23;;;;;;;13.13;11.82;;;;;;;;;;4191210;34;20482;-64
2020/12/23 00:33:49;;;;;;;13.02;11.82;;;;;;;;;;4191135;34;20771;-63
2020/12/23 00:36:15;;;;;;;13.30;12.00;;;;;;;;;;4191127;34;20130;-64
2020/12/23 00:38:42;;;;;;;13.02;11.75;;;;;;;;;;4191200;34;20446;-64
2020/12/23 00:41:09;;;;;;;12.05;10.95;;;;;;;;;;4191034;34;20122;-62
2020/12/23 00:43:35;;;;;;;12.85;11.35;;;;;;;;;;4191083;34;20203;-62
2020/12/23 00:46:00;;;;;;;12.27;11.10;;;;;;;;;;4178346;34;20130;-62
2020/12/23 00:48:26;;;;;;;11.75;10.65;;;;;;;;;;4191159;34;20192;-63
2020/12/23 00:50:52;;;;;;;11.55;10.48;;;;;;;;;;4176624;34;20157;-63
2020/12/23 00:53:18;;;;;;;11.88;10.73;;;;;;;;;;4191020;34;20109;-61
2020/12/23 00:55:44;;;;;;;11.95;10.75;;;;;;;;;;4190754;34;20102;-62
2020/12/23 00:58:10;;;;;;;10.40;9.40;;;;;;;;;;4177671;34;20205;-62
2020/12/23 01:00:36;;;;;;;9.75;8.73;;;;;;;;;;4190749;34;20142;-62
2020/12/23 01:03:01;;;;;;;10.60;9.60;;;;;;;;;;4190980;34;20189;-62
2020/12/23 01:05:27;;;;;;;9.93;8.95;;;;;;;;;;4190558;34;20217;-63
2020/12/23 01:07:54;;;;;;;10.40;9.50;;;;;;;;;;4190980;34;20209;-62
2020/12/23 01:10:20;;;;;;;9.70;8.80;;;;;;;;;;4190733;34;20118;-62
2020/12/23 01:12:46;;;;;;;10.88;9.88;;;;;;;;;;4178033;34;20478;-62
2020/12/23 01:15:12;;;;;;;10.35;9.35;;;;;;;;;;4190668;34;20489;-62
2020/12/23 01:17:37;;;;;;;10.60;9.55;;;;;;;;;;4190794;34;20518;-62
2020/12/23 01:20:04;;;;;;;11.68;9.88;;;;;;;;;;4190643;34;20602;-62
2020/12/23 01:22:30;;;;;;;10.65;9.65;;;;;;;;;;4190768;34;20114;-62
2020/12/23 01:24:55;;;;;;;10.77;9.77;;;;;;;;;;4190587;34;20470;-62
2020/12/23 01:27:21;;;;;;;10.20;9.20;;;;;;;;;;4177912;34;20106;-63
2020/12/23 01:29:47;;;;;;;9.82;8.93;;;;;;;;;;4190712;34;20210;-62
2020/12/23 01:32:13;;;;;;;10.50;9.50;;;;;;;;;;4190550;34;20154;-62
2020/12/23 01:34:39;;;;;;;11.23;10.23;;;;;;;;;;4177941;34;20219;-62
2020/12/23 01:37:05;;;;;;;10.65;9.73;;;;;;;;;;4190838;34;20133;-62
2020/12/23 01:39:31;;;;;;;10.18;9.18;;;;;;;;;;4190834;34;20150;-62
2020/12/23 01:41:57;;;;;;;10.85;9.82;;;;;;;;;;4190457;34;20130;-62
2020/12/23 01:44:23;;;;;;;9.77;8.93;;;;;;;;;;4190328;34;20122;-62
2020/12/23 01:46:49;;;;;;;9.60;8.70;;;;;;;;;;4190406;34;20108;-62
2020/12/23 01:49:15;;;;;;;10.15;9.25;;;;;;;;;;4190397;34;20111;-62
2020/12/23 01:51:41;;;;;;;11.40;9.48;;;;;;;;;;4187411;34;20194;-61
2020/12/23 01:54:07;;;;;;;11.50;10.48;;;;;;;;;;4191153;34;20526;-63
2020/12/23 01:56:33;;;;;;;10.45;9.38;;;;;;;;;;4180044;34;20113;-62
2020/12/23 01:58:59;;;;;;;11.02;10.02;;;;;;;;;;4191090;34;20142;-63
2020/12/23 02:01:27;;;;;;;10.00;9.10;;;;;;;;;;4204105;34;20125;-63
2020/12/23 02:03:53;;;;;;;10.45;9.50;;;;;;;;;;4191151;34;20114;-62
2020/12/23 02:06:19;;;;;;;11.12;10.02;;;;;;;;;;4188760;34;20181;-63
2020/12/23 02:08:46;;;;;;;10.88;9.90;;;;;;;;;;4188579;34;20126;-63
2020/12/23 02:11:13;;;;;;;10.93;9.93;;;;;;;;;;4178913;34;20121;-62
2020/12/23 02:13:43;;;;;;;10.13;9.13;;;;;;;;;;4192035;34;20574;-61
2020/12/23 02:16:10;;;;;;;9.68;8.68;;;;;;;;;;4192271;34;20132;-62
2020/12/23 02:18:36;;;;;;;10.20;9.07;;;;;;;;;;4192346;34;20122;-63
2020/12/23 02:21:02;;;;;;;10.73;9.73;;;;;;;;;;4179494;34;20120;-63
2020/12/23 02:23:28;;;;;;;10.75;9.65;;;;;;;;;;4192086;34;20114;-63
2020/12/23 02:25:54;;;;;;;9.50;8.60;;;;;;;;;;4181766;34;20129;-62
2020/12/23 02:28:21;;;;;;;10.25;9.27;;;;;;;;;;4177173;34;20451;-63
2020/12/23 02:30:50;;;;;;;10.60;9.57;;;;;;;;;;4178363;34;20130;-61
2020/12/23 02:33:16;;;;;;;9.82;8.90;;;;;;;;;;4178563;34;20109;-63
2020/12/23 02:35:43;;;;;;;10.20;9.20;;;;;;;;;;4176681;34;20117;-62
2020/12/23 02:38:08;;;;;;;10.38;9.38;;;;;;;;;;4178267;34;20106;-62
2020/12/23 02:40:34;;;;;;;10.35;9.25;;;;;;;;;;4178284;34;20109;-62
2020/12/23 02:43:00;;;;;;;9.43;8.43;;;;;;;;;;4178258;34;20087;-62
2020/12/23 02:45:26;;;;;;;10.52;9.40;;;;;;;;;;4177350;34;20114;-64
2020/12/23 02:47:52;;;;;;;10.25;9.25;;;;;;;;;;4178153;34;20102;-63
2020/12/23 02:50:18;;;;;;;9.70;8.80;;;;;;;;;;4178108;34;20126;-64
2020/12/23 02:52:44;;;;;;;9.68;8.77;;;;;;;;;;4189008;34;20126;-64
2020/12/23 02:55:10;;;;;;;10.05;9.05;;;;;;;;;;4191805;34;20148;-63
2020/12/23 02:57:36;;;;;;;9.98;8.80;;;;;;;;;;4192242;34;20607;-63
2020/12/23 03:00:03;;;;;;;9.57;8.60;;;;;;;;;;4191845;34;20541;-63
2020/12/23 03:02:29;;;;;;;9.70;8.70;;;;;;;;;;4190536;34;20118;-63
2020/12/23 03:04:55;;;;;;;10.80;9.77;;;;;;;;;;4197524;34;20152;-62
2020/12/23 03:07:21;;;;;;;9.98;9.00;;;;;;;;;;4205681;34;20205;-64
2020/12/23 03:09:47;;;;;;;10.05;9.13;;;;;;;;;;4205553;34;20121;-62
2020/12/23 03:12:13;;;;;;;9.40;8.60;;;;;;;;;;4205744;34;20120;-60
2020/12/23 03:14:39;;;;;;;10.60;9.60;;;;;;;;;;4205446;34;20558;-61
2020/12/23 03:17:04;;;;;;;8.95;8.15;;;;;;;;;;4205674;34;20094;-61
2020/12/23 03:19:30;;;;;;;8.95;8.05;;;;;;;;;;4205622;34;20113;-61
2020/12/23 03:21:56;;;;;;;10.80;9.75;;;;;;;;;;4204872;34;20521;-62
2020/12/23 03:24:22;;;;;;;10.77;9.77;;;;;;;;;;4205287;34;20225;-62
2020/12/23 03:26:48;;;;;;;10.27;9.27;;;;;;;;;;4205367;34;20469;-61
2020/12/23 03:29:14;;;;;;;9.98;9.07;;;;;;;;;;4205255;34;20501;-60
2020/12/23 03:31:40;;;;;;;9.50;8.60;;;;;;;;;;4205559;34;20213;-63
2020/12/23 03:34:06;;;;;;;9.63;8.70;;;;;;;;;;4205173;34;20137;-62
2020/12/23 03:36:32;;;;;;;8.40;7.60;;;;;;;;;;4205455;34;20191;-63
2020/12/23 03:38:58;;;;;;;8.63;7.82;;;;;;;;;;4199004;34;20110;-62
2020/12/23 03:41:24;;;;;;;8.93;8.13;;;;;;;;;;4177267;34;20103;-62
2020/12/23 03:43:50;;;;;;;9.55;8.75;;;;;;;;;;4177825;34;20106;-62
2020/12/23 03:46:16;;;;;;;9.25;8.45;;;;;;;;;;4191099;34;20114;-61
2020/12/23 03:48:42;;;;;;;9.90;9.00;;;;;;;;;;4189066;34;20518;-62
2020/12/23 03:51:08;;;;;;;9.38;8.48;;;;;;;;;;4192155;34;20368;-65
2020/12/23 03:53:34;;;;;;;8.82;8.02;;;;;;;;;;4191317;34;20125;-61
2020/12/23 03:56:00;;;;;;;9.60;8.70;;;;;;;;;;4204116;34;20117;-65
2020/12/23 03:58:26;;;;;;;10.52;8.57;;;;;;;;;;4204344;34;20110;-67
2020/12/23 04:00:51;;;;;;;9.40;8.60;;;;;;;;;;4204042;34;20090;-63
2020/12/23 04:03:17;;;;;;;9.60;8.68;;;;;;;;;;4204109;34;20526;-63
2020/12/23 04:05:43;;;;;;;8.77;7.97;;;;;;;;;;4204531;34;20198;-63
2020/12/23 04:08:09;;;;;;;8.40;7.70;;;;;;;;;;4204627;34;20126;-64
2020/12/23 04:10:36;;;;;;;8.95;8.15;;;;;;;;;;4181915;34;20099;-64
2020/12/23 04:13:02;;;;;;;8.00;7.28;;;;;;;;;;4182435;34;20117;-63
2020/12/23 04:15:28;;;;;;;8.02;7.22;;;;;;;;;;4168830;34;20621;-64
2020/12/23 04:17:55;;;;;;;8.65;7.85;;;;;;;;;;4191110;34;20171;-64
2020/12/23 04:20:21;;;;;;;9.02;8.23;;;;;;;;;;4190944;34;20523;-64
2020/12/23 04:22:47;;;;;;;8.60;7.82;;;;;;;;;;4166990;34;20214;-64
2020/12/23 04:25:13;;;;;;;9.20;8.32;;;;;;;;;;4178461;34;20121;-64
2020/12/23 04:27:39;;;;;;;8.63;7.82;;;;;;;;;;4190950;34;20540;-63
2020/12/23 04:30:05;;;;;;;8.98;8.18;;;;;;;;;;4191133;34;20127;-64
2020/12/23 04:32:31;;;;;;;9.50;8.63;;;;;;;;;;4191261;34;20105;-64
2020/12/23 04:35:01;;;;;;;9.43;8.63;;;;;;;;;;4190775;34;20122;-65
2020/12/23 04:37:28;;;;;;;8.68;7.87;;;;;;;;;;4178601;34;20133;-65
2020/12/23 04:39:55;;;;;;;9.23;8.32;;;;;;;;;;4191083;34;20197;-65
2020/12/23 04:42:21;;;;;;;9.15;8.35;;;;;;;;;;4190897;34;20140;-65
2020/12/23 04:44:47;;;;;;;9.35;8.55;;;;;;;;;;4190789;34;20124;-64
2020/12/23 04:47:14;;;;;;;8.88;8.07;;;;;;;;;;4178018;34;20220;-63
2020/12/23 04:49:40;;;;;;;9.90;8.90;;;;;;;;;;4178281;34;20117;-64
2020/12/23 04:52:07;;;;;;;10.48;9.50;;;;;;;;;;4174349;34;20497;-64
2020/12/23 04:54:34;;;;;;;9.63;8.73;;;;;;;;;;4204495;34;20141;-69
2020/12/23 04:57:01;;;;;;;10.02;9.00;;;;;;;;;;4191702;34;20125;-66
2020/12/23 04:59:27;;;;;;;9.20;8.30;;;;;;;;;;4204323;34;20481;-62
2020/12/23 05:01:53;;;;;;;9.15;8.27;;;;;;;;;;4204908;34;20443;-63
2020/12/23 05:04:19;;;;;;;8.70;7.90;;;;;;;;;;4204548;34;20122;-66
2020/12/23 05:06:44;;;;;;;8.63;7.82;;;;;;;;;;4204769;34;20125;-65
2020/12/23 05:09:10;;;;;;;8.98;8.18;;;;;;;;;;4204469;34;20248;-63
2020/12/23 05:11:36;;;;;;;8.98;8.18;;;;;;;;;;4204738;34;20128;-64
2020/12/23 05:14:06;;;;;;;8.82;7.95;;;;;;;;;;4204437;34;20526;-63
2020/12/23 05:16:32;;;;;;;9.00;8.20;;;;;;;;;;4191750;34;20125;-63
2020/12/23 05:18:59;;;;;;;9.85;8.77;;;;;;;;;;4191692;34;20112;-62
2020/12/23 05:21:28;;;;;;;10.02;9.13;;;;;;;;;;4204600;34;20125;-62
2020/12/23 05:23:55;;;;;;;9.57;8.63;;;;;;;;;;4191587;34;20137;-62
2020/12/23 05:26:22;;;;;;;9.63;8.73;;;;;;;;;;4204399;34;20090;-62
2020/12/23 05:28:48;;;;;;;9.60;8.77;;;;;;;;;;4204295;34;20124;-62
2020/12/23 05:31:15;;;;;;;9.13;8.32;;;;;;;;;;4191625;34;20102;-62
2020/12/23 05:33:42;;;;;;;9.35;8.52;;;;;;;;;;4191613;34;20121;-62
2020/12/23 05:36:09;;;;;;;9.65;8.55;;;;;;;;;;4204371;34;21037;-60
2020/12/23 05:38:35;;;;;;;8.75;7.95;;;;;;;;;;4204333;34;20128;-62
2020/12/23 05:41:07;;;;;;;8.50;7.70;;;;;;;;;;4204447;34;20125;-61
2020/12/23 05:43:33;;;;;;;9.50;8.60;;;;;;;;;;4191826;34;20149;-61
2020/12/23 05:46:00;;;;;;;9.52;8.60;;;;;;;;;;4192951;34;20527;-62
2020/12/23 05:48:27;;;;;;;9.48;8.57;;;;;;;;;;4206305;34;20446;-61
2020/12/23 05:50:53;;;;;;;9.13;8.32;;;;;;;;;;4206149;34;20129;-63
2020/12/23 05:53:19;;;;;;;10.07;9.18;;;;;;;;;;4193474;34;20668;-62
2020/12/23 05:55:51;;;;;;;10.65;9.55;;;;;;;;;;4193265;34;20466;-62
2020/12/23 05:58:23;;;;;;;9.77;8.63;;;;;;;;;;4206327;34;20106;-60
2020/12/23 06:00:54;;;;;;;10.57;9.52;;;;;;;;;;4193298;34;20094;-61
2020/12/23 06:03:42;;;;;;;8.85;8.05;;;;;;;;;;4181045;34;20207;-62
2020/12/23 06:06:08;;;;;;;9.95;9.05;;;;;;;;;;4169677;34;20137;-61
2020/12/23 06:08:38;;;;;;;9.10;8.20;;;;;;;;;;4179810;34;20141;-63
2020/12/23 06:11:23;;;;;;;10.65;9.65;;;;;;;;;;4187424;34;20435;-62
2020/12/23 06:14:04;;;;;;;9.65;8.75;;;;;;;;;;4192172;34;20115;-63
2020/12/23 06:16:30;;;;;;;10.38;9.38;;;;;;;;;;4192128;34;20182;-62
2020/12/23 06:19:16;;;;;;;8.82;8.02;;;;;;;;;;4189608;34;20125;-62
2020/12/23 06:21:41;;;;;;;9.65;8.77;;;;;;;;;;4179109;34;20537;-63
2020/12/23 06:24:13;;;;;;;9.18;8.38;;;;;;;;;;4191867;34;20133;-63
2020/12/23 06:26:40;;;;;;;11.30;9.25;;;;;;;;;;4168577;34;20470;-62
2020/12/23 06:29:08;;;;;;;9.48;8.57;;;;;;;;;;4167868;34;20573;-62
2020/12/23 06:31:48;;;;;;;9.20;8.40;;;;;;;;;;4179380;34;20238;-62
2020/12/23 06:34:41;;;;;;;8.82;8.07;;;;;;;;;;4192188;34;20121;-62
2020/12/23 06:37:20;;;;;;;9.73;8.80;;;;;;;;;;4189573;34;20137;-62
2020/12/23 06:39:47;;;;;;;8.70;7.90;;;;;;;;;;4192041;34;20106;-62
2020/12/23 06:42:13;;;;;;;9.15;8.30;;;;;;;;;;4192404;34;20185;-62
2020/12/23 06:44:42;;;;;;;9.65;8.70;;;;;;;;;;4191723;34;20528;-62
2020/12/23 06:47:10;;;;;;;8.75;7.95;;;;;;;;;;4192016;34;20090;-60
2020/12/23 06:49:43;;;;;;;8.60;7.85;;;;;;;;;;4191813;34;20105;-64
2020/12/23 06:52:21;;;;;;;9.90;8.90;;;;;;;;;;4190306;34;20094;-63
2020/12/23 06:54:53;;;;;;;8.80;8.00;;;;;;;;;;4190145;34;20109;-61
2020/12/23 06:57:38;;;;;;;8.68;7.87;;;;;;;;;;4190611;34;20102;-61
2020/12/23 07:00:16;;;;;;;9.23;8.40;;;;;;;;;;4191598;34;20204;-61
2020/12/23 07:03:04;;;;;;;8.82;8.02;;;;;;;;;;4191929;34;20969;-61
2020/12/23 07:05:37;;;;;;;9.50;8.60;;;;;;;;;;4191590;34;20221;-62
2020/12/23 07:08:05;;;;;;;10.77;9.60;;;;;;;;;;4192079;34;20123;-62
2020/12/23 07:10:52;;;;;;;9.90;8.90;;;;;;;;;;4191213;34;20145;-62
2020/12/23 07:13:19;;;;;;;10.88;9.88;;;;;;;;;;4181191;34;20094;-61
2020/12/23 07:15:53;;;;;;;9.98;9.07;;;;;;;;;;4178885;34;20138;-63
2020/12/23 07:18:29;;;;;;;9.68;8.77;;;;;;;;;;4191639;34;20155;-62
2020/12/23 07:20:58;;;;;;;9.82;8.82;;;;;;;;;;4178614;34;20523;-62
2020/12/23 07:23:26;;;;;;;8.38;7.57;;;;;;;;;;4191709;34;20122;-63
2020/12/23 07:25:53;;;;;;;7.93;7.15;;;;;;;;;;4191384;34;20534;-63
2020/12/23 07:28:24;;;;;;;8.73;7.93;;;;;;;;;;4191895;34;20094;-62
2020/12/23 07:30:50;;;;;;;8.63;7.85;;;;;;;;;;4178431;34;20546;-62
2020/12/23 07:33:22;;;;;;;7.30;6.68;;;;;;;;;;4191749;34;20113;-62
2020/12/23 07:35:50;;;;;;;7.95;7.15;;;;;;;;;;4191406;34;20172;-62
2020/12/23 07:38:17;;;;;;;7.53;6.82;;;;;;;;;;4167538;34;20198;-62
2020/12/23 07:40:43;;;;;;;7.62;6.93;;;;;;;;;;4191124;34;20125;-62
2020/12/23 07:43:09;;;;;;;8.55;7.75;;;;;;;;;;4191337;34;20198;-62
2020/12/23 07:45:36;;;;;;;7.97;7.28;;;;;;;;;;4191141;34;20123;-62
2020/12/23 07:48:04;;;;;;;7.90;7.18;;;;;;;;;;4191429;34;20101;-61
2020/12/23 07:50:40;;;;;;;8.73;7.30;;;;;;;;;;4178709;34;20157;-59
2020/12/23 07:53:18;;;;;;;8.05;7.35;;;;;;;;;;4183728;34;20110;-60
2020/12/23 07:56:07;;;;;;;8.88;7.97;;;;;;;;;;4172310;34;20470;-60
2020/12/23 07:58:34;;;;;;;10.07;9.07;;;;;;;;;;4180779;34;20101;-59
2020/12/23 08:01:00;;;;;;;8.88;7.97;;;;;;;;;;4190842;34;20125;-60
2020/12/23 08:03:30;;;;;;;9.48;8.57;;;;;;;;;;4191335;34;20230;-61
2020/12/23 08:06:06;;;;;;;10.68;9.68;;;;;;;;;;4190822;34;20106;-61
2020/12/23 08:08:33;;;;;;;9.60;8.70;;;;;;;;;;4190792;34;20718;-61
2020/12/23 08:11:08;;;;;;;9.57;8.57;;;;;;;;;;4177778;34;20146;-62
2020/12/23 08:13:34;;;;;;;;;;;;;;;;;;4191175;34;20110;-62
2020/12/23 08:16:11;;;;;;;8.73;7.93;;;;;;;;;;4190850;34;20060;-61
2020/12/23 08:18:38;;;;;;;8.98;8.18;;;;;;;;;;4191293;34;20645;-61
2020/12/23 08:21:08;;;;;;;9.05;8.20;;;;;;;;;;4178006;34;20222;-61
2020/12/23 08:23:34;;;;;;;9.68;8.68;;;;;;;;;;4191261;34;20104;-61
2020/12/23 08:26:00;;;;;;;9.10;8.25;;;;;;;;;;4190732;34;20545;-61
2020/12/23 08:28:27;;;;;;;8.93;8.10;;;;;;;;;;4178503;34;20202;-61
2020/12/23 08:30:53;;;;;;;9.77;8.38;;;;;;;;;;4166794;34;20097;-61
2020/12/23 08:33:19;;;;;;;10.02;8.95;;;;;;;;;;4167195;34;20673;-60
2020/12/23 08:35:46;;;;;;;9.15;8.27;;;;;;;;;;4178010;34;20108;-60
2020/12/23 08:38:21;;;;;;;9.20;8.30;;;;;;;;;;4191206;34;20535;-62
2020/12/23 08:40:49;;;;;;;7.70;7.00;;;;;;;;;;4177915;34;20503;-62
2020/12/23 08:43:25;;;;;;;14.40;8.52;;;;;;;;;;4190918;34;20209;-62
2020/12/23 08:45:52;;;;;;;10.30;9.27;;;;;;;;;;4177496;34;20111;-62
2020/12/23 08:48:22;;;;;;;11.38;10.32;;;;;;;;;;4190284;34;20459;-62
2020/12/23 08:51:01;;;;;;;11.12;10.02;;;;;;;;;;4188426;34;20106;-62
2020/12/23 08:53:29;;;;;;;10.15;9.15;;;;;;;;;;4161258;34;20467;-62
2020/12/23 08:55:55;;;;;;;11.45;8.80;;;;;;;;;;4182392;34;20254;-62
2020/12/23 08:58:21;;;;;;;10.48;9.07;;;;;;;;;;4188733;34;20129;-62
2020/12/23 09:00:57;;;;;;;10.48;9.48;;;;;;;;;;4175014;34;20173;-62
2020/12/23 09:03:25;;;;;;;9.90;9.00;;;;;;;;;;4175279;34;20128;-64
2020/12/23 09:05:51;;;;;;;9.48;8.57;;;;;;;;;;4177572;34;20117;-61
2020/12/23 09:08:17;;;;;;;9.02;8.13;;;;;;;;;;4190964;34;20529;-61
2020/12/23 09:10:52;;;;;;;9.30;8.50;;;;;;;;;;4189656;34;20118;-62
2020/12/23 09:13:18;;;;;;;9.52;8.52;;;;;;;;;;4178012;34;20205;-62
2020/12/23 09:15:52;;;;;;;10.13;9.13;;;;;;;;;;4190146;34;20118;-62
2020/12/23 09:18:22;;;;;;;11.25;9.05;;;;;;;;;;4189925;34;20125;-62
2020/12/23 09:20:56;;;;;;;9.75;8.85;;;;;;;;;;4189322;34;20117;-63
2020/12/23 09:23:22;;;;;;;10.70;9.63;;;;;;;;;;4190751;34;20197;-62
2020/12/23 09:25:51;;;;;;;9.63;8.73;;;;;;;;;;4189986;34;20234;-64
2020/12/23 09:28:19;;;;;;;9.75;8.75;;;;;;;;;;4178178;34;20101;-65
2020/12/23 09:30:46;;;;;;;9.85;8.95;;;;;;;;;;4190006;34;20105;-64
2020/12/23 09:33:45;;;;;;;9.15;8.25;;;;;;;;;;4190518;34;20144;-64
2020/12/23 09:36:16;;;;;;;9.68;8.77;;;;;;;;;;4189847;34;20134;-65
2020/12/23 09:38:43;;;;;;;9.10;8.27;;;;;;;;;;4190271;34;20122;-65
2020/12/23 09:41:10;;;;;;;10.02;9.02;;;;;;;;;;4177283;34;20130;-65
2020/12/23 09:43:36;;;;;;;9.35;8.50;;;;;;;;;;4190239;34;20101;-63
2020/12/23 09:46:13;;;;;;;8.63;7.80;;;;;;;;;;4181307;34;20191;-63
2020/12/23 09:48:48;;;;;;;9.65;8.75;;;;;;;;;;4176353;34;20110;-63
2020/12/23 09:51:14;;;;;;;9.93;9.00;;;;;;;;;;4180381;34;20213;-62
2020/12/23 09:53:39;;;;;;;10.07;9.07;;;;;;;;;;4203797;34;20133;-62
2020/12/23 09:56:05;;;;;;;9.70;8.80;;;;;;;;;;4202564;34;20209;-62
2020/12/23 09:58:31;;;;;;;9.48;8.57;;;;;;;;;;4201863;34;20153;-62
2020/12/23 10:00:57;;;;;;;8.85;8.05;;;;;;;;;;4200179;34;20478;-61
2020/12/23 10:03:23;;;;;;;9.32;8.43;;;;;;;;;;4201209;34;20553;-63
2020/12/23 10:05:55;;;;;;;9.23;8.43;;;;;;;;;;4166027;34;20109;-61
2020/12/23 10:08:21;;;;;;;9.55;8.65;;;;;;;;;;4176206;34;20225;-61
2020/12/23 10:10:47;;;;;;;9.23;8.43;;;;;;;;;;4181203;34;20627;-61
2020/12/23 10:13:13;;;;;;;8.68;7.87;;;;;;;;;;4176461;34;20118;-61
2020/12/23 10:15:39;;;;;;;8.80;7.97;;;;;;;;;;4175898;34;20126;-64
2020/12/23 10:18:05;;;;;;;8.55;7.75;;;;;;;;;;4176208;34;20551;-62
2020/12/23 10:20:33;;;;;;;9.60;8.68;;;;;;;;;;4175741;34;20130;-64
2020/12/23 10:22:59;;;;;;;9.77;8.85;;;;;;;;;;4176039;34;20538;-64
2020/12/23 10:25:25;;;;;;;8.77;7.97;;;;;;;;;;4175994;34;20454;-64
2020/12/23 10:27:51;;;;;;;8.63;7.78;;;;;;;;;;4176040;34;20209;-63
2020/12/23 10:30:17;;;;;;;8.05;7.35;;;;;;;;;;4162923;34;20095;-63
2020/12/23 10:32:43;;;;;;;9.93;8.93;;;;;;;;;;4177641;34;20110;-62
2020/12/23 10:35:08;;;;;;;9.82;8.82;;;;;;;;;;4176778;34;20105;-63
2020/12/23 10:37:35;;;;;;;9.20;8.30;;;;;;;;;;4174850;34;20211;-63
2020/12/23 10:40:02;;;;;;;8.35;7.65;;;;;;;;;;4177265;34;20109;-61
2020/12/23 10:42:28;;;;;;;8.02;7.25;;;;;;;;;;4177827;34;20083;-64
2020/12/23 10:44:54;;;;;;;7.80;7.10;;;;;;;;;;4178293;34;20740;-63
2020/12/23 10:47:20;;;;;;;8.90;8.07;;;;;;;;;;4177945;34;20218;-64
2020/12/23 10:49:48;;;;;;;8.32;7.53;;;;;;;;;;4191404;34;20185;-64
2020/12/23 10:52:14;;;;;;;8.18;7.47;;;;;;;;;;4200112;34;20114;-63
2020/12/23 10:54:40;;;;;;;7.57;6.87;;;;;;;;;;4166369;34;20110;-62
2020/12/23 10:57:06;;;;;;;7.93;7.12;;;;;;;;;;4178286;34;20149;-60
2020/12/23 10:59:32;;;;;;;8.30;7.50;;;;;;;;;;4177817;34;20123;-62
2020/12/23 11:01:58;;;;;;;9.15;8.32;;;;;;;;;;4178406;34;20214;-61
2020/12/23 11:04:24;;;;;;;8.10;7.30;;;;;;;;;;4177688;34;20166;-60
2020/12/23 11:06:53;;;;;;;9.00;8.20;;;;;;;;;;4178080;34;20213;-60
2020/12/23 11:09:19;;;;;;;13.60;11.80;;;;;;;;;;4165259;34;20486;-61
2020/12/23 11:11:54;;;;;;;13.98;12.68;;;;;;;;;;4177776;34;20118;-61
2020/12/23 11:14:20;;;;;;;8.02;7.32;;;;;;;;;;4165421;34;20110;-61
2020/12/23 11:16:49;;;;;;;8.90;7.75;;;;;;;;;;4177794;34;20101;-61
2020/12/23 11:19:15;;;;;;;8.07;7.37;;;;;;;;;;4165057;34;20747;-62
2020/12/23 11:21:43;;;;;;;7.87;7.07;;;;;;;;;;4178274;34;20107;-62
2020/12/23 11:24:09;;;;;;;7.40;6.80;;;;;;;;;;4187852;34;20134;-63
2020/12/23 11:26:35;;;;;;;8.43;7.53;;;;;;;;;;4178764;34;20225;-60
2020/12/23 11:29:02;;;;;;;7.57;6.97;;;;;;;;;;4191640;34;20200;-61
2020/12/23 11:31:27;;;;;;;8.02;7.25;;;;;;;;;;4191649;34;20128;-62
2020/12/23 11:33:53;;;;;;;6.93;6.32;;;;;;;;;;4178838;34;20154;-61
2020/12/23 11:36:19;;;;;;;6.85;6.25;;;;;;;;;;4191706;34;20101;-62
2020/12/23 11:38:45;;;;;;;7.40;6.75;;;;;;;;;;4178604;34;20099;-61
2020/12/23 11:41:11;;;;;;;7.55;6.87;;;;;;;;;;4191557;34;20099;-62
2020/12/23 11:43:38;;;;;;;7.95;7.22;;;;;;;;;;4189520;34;20275;-64
2020/12/23 11:46:04;;;;;;;8.55;7.75;;;;;;;;;;4177213;34;20525;-62
2020/12/23 11:48:30;;;;;;;7.97;7.28;;;;;;;;;;4177462;34;20110;-62
2020/12/23 11:50:56;;;;;;;8.32;7.47;;;;;;;;;;4187032;34;20105;-62
2020/12/23 11:53:22;;;;;;;8.35;7.45;;;;;;;;;;4176792;34;20105;-62
2020/12/23 11:55:48;;;;;;;9.52;8.52;;;;;;;;;;4177790;34;20090;-62
2020/12/23 11:58:14;;;;;;;8.85;7.93;;;;;;;;;;4191062;34;20190;-62
2020/12/23 12:00:40;;;;;;;8.45;7.65;;;;;;;;;;4191340;34;20106;-62
2020/12/23 12:03:06;;;;;;;8.73;7.93;;;;;;;;;;4178477;34;20125;-62
2020/12/23 12:05:38;;;;;;;7.78;7.07;;;;;;;;;;4191367;34;20218;-61
2020/12/23 12:08:14;;;;;;;7.95;7.25;;;;;;;;;;4187493;34;20087;-62
2020/12/23 12:10:44;;;;;;;;;;;;;;;;;;4178278;34;20110;-61
2020/12/23 12:13:10;;;;;;;7.07;6.43;;;;;;;;;;4188290;34;20033;-60
2020/12/23 12:15:36;;;;;;;7.20;6.60;;;;;;;;;;4190989;34;20110;-61
2020/12/23 12:18:02;;;;;;;8.27;7.53;;;;;;;;;;4180230;34;20189;-61
2020/12/23 12:20:28;;;;;;;7.35;6.70;;;;;;;;;;4190884;34;20193;-62
2020/12/23 12:22:56;;;;;;;7.80;7.00;;;;;;;;;;4191178;34;20166;-62
2020/12/23 12:25:22;;;;;;;8.40;7.60;;;;;;;;;;4190897;34;20189;-60
2020/12/23 12:27:50;;;;;;;7.32;6.62;;;;;;;;;;4181921;34;20126;-61
2020/12/23 12:30:16;;;;;;;7.47;6.78;;;;;;;;;;4177434;34;20109;-59
2020/12/23 12:32:42;;;;;;;7.72;6.93;;;;;;;;;;4177131;34;20122;-61
2020/12/23 12:35:08;;;;;;;7.95;7.20;;;;;;;;;;4177274;34;20530;-61
2020/12/23 12:37:34;;;;;;;8.48;7.40;;;;;;;;;;4177532;34;20220;-61
2020/12/23 12:40:00;;;;;;;7.65;7.05;;;;;;;;;;4177345;34;20118;-60
2020/12/23 12:42:26;;;;;;;6.65;6.05;;;;;;;;;;4177221;34;20488;-60
2020/12/23 12:44:52;;;;;;;7.53;6.82;;;;;;;;;;4173423;34;20122;-61
2020/12/23 12:47:18;;;;;;;7.28;6.57;;;;;;;;;;4178055;34;20089;-61
2020/12/23 12:49:44;;;;;;;7.30;6.68;;;;;;;;;;4190963;34;20113;-61
2020/12/23 12:52:11;;;;;;;7.75;7.05;;;;;;;;;;4190566;34;20098;-60
2020/12/23 12:54:37;;;;;;;8.57;7.78;;;;;;;;;;4189203;34;20141;-61
2020/12/23 12:57:03;;;;;;;7.85;7.15;;;;;;;;;;4176600;34;20535;-64
2020/12/23 12:59:29;;;;;;;8.93;8.13;;;;;;;;;;4177229;34;20499;-60
2020/12/23 13:01:55;;;;;;;8.82;8.02;;;;;;;;;;4177228;34;20118;-58
2020/12/23 13:04:21;;;;;;;9.23;8.43;;;;;;;;;;4203082;28;20102;-63
2020/12/23 13:06:47;;;;;;;9.60;8.73;;;;;;;;;;4198247;34;20106;-59
2020/12/23 13:09:14;;;;;;;9.75;8.90;;;;;;;;;;4188503;34;20545;-64
2020/12/23 13:11:40;;;;;;;8.77;7.95;;;;;;;;;;4188434;34;20109;-63
2020/12/23 13:14:06;;;;;;;9.32;8.43;;;;;;;;;;4202418;34;20485;-64
2020/12/23 13:16:32;;;;;;;10.68;9.40;;;;;;;;;;4202168;34;20332;-63
2020/12/23 13:18:58;;;;;;;9.73;8.73;;;;;;;;;;4202511;34;20522;-63
2020/12/23 13:21:24;;;;;;;9.70;8.88;;;;;;;;;;4190089;34;20132;-64
2020/12/23 13:23:51;;;;;;;8.93;8.02;;;;;;;;;;4204002;34;20133;-63
2020/12/23 13:26:17;;;;;;;8.98;8.18;;;;;;;;;;4204406;34;20242;-65
2020/12/23 13:28:46;;;;;;;9.00;8.15;;;;;;;;;;4191441;34;20117;-65
2020/12/23 13:31:13;;;;;;;8.82;7.93;;;;;;;;;;4192008;34;20221;-64
2020/12/23 13:33:39;;;;;;;8.80;7.93;;;;;;;;;;4191025;34;20144;-64
2020/12/23 13:36:05;;;;;;;8.43;7.72;;;;;;;;;;4203962;34;20101;-64
2020/12/23 13:38:30;;;;;;;10.18;9.18;;;;;;;;;;4204301;34;20452;-65
2020/12/23 13:40:56;;;;;;;11.25;10.25;;;;;;;;;;4204099;34;20145;-64
2020/12/23 13:43:25;;;;;;;13.30;12.10;;;;;;;;;;4191697;34;20446;-65
2020/12/23 13:45:52;;;;;;;12.75;11.55;;;;;;;;;;4204250;34;20434;-64
2020/12/23 13:48:18;;;;;;;11.52;10.43;;;;;;;;;;4179005;34;20111;-65
2020/12/23 13:50:44;;;;;;;10.65;9.63;;;;;;;;;;4204336;34;20117;-65
2020/12/23 13:53:10;;;;;;;9.95;9.05;;;;;;;;;;4204076;34;20544;-63
2020/12/23 13:55:36;;;;;;;9.35;8.45;;;;;;;;;;4204046;34;20213;-64
2020/12/23 13:58:03;;;;;;;8.93;8.13;;;;;;;;;;4189705;34;20125;-63
2020/12/23 14:00:29;;;;;;;9.38;8.45;;;;;;;;;;4190001;34;20105;-63
2020/12/23 14:02:55;;;;;;;10.35;9.38;;;;;;;;;;4187695;34;20169;-63
2020/12/23 14:05:22;;;;;;;10.05;9.07;;;;;;;;;;4203873;34;20110;-62
2020/12/23 14:07:49;;;;;;;10.40;9.50;;;;;;;;;;4205893;34;20148;-63
2020/12/23 14:10:15;;;;;;;10.82;9.73;;;;;;;;;;4205936;34;20109;-63
2020/12/23 14:12:41;;;;;;;12.02;10.20;;;;;;;;;;4192549;34;20144;-64
2020/12/23 14:15:07;;;;;;;9.88;8.98;;;;;;;;;;4206045;34;20129;-61
2020/12/23 14:17:33;;;;;;;9.00;8.10;;;;;;;;;;4205923;34;20110;-63
2020/12/23 14:19:59;;;;;;;9.23;8.43;;;;;;;;;;4204867;34;20133;-63
2020/12/23 14:22:25;;;;;;;10.00;9.00;;;;;;;;;;4202724;34;20138;-63
2020/12/23 14:24:52;;;;;;;9.45;8.45;;;;;;;;;;4204348;34;20140;-64
2020/12/23 14:27:17;;;;;;;9.73;8.82;;;;;;;;;;4198136;34;20486;-64
2020/12/23 14:29:43;;;;;;;10.15;9.20;;;;;;;;;;4191234;34;20132;-63
2020/12/23 14:32:10;;;;;;;10.90;9.90;;;;;;;;;;4191016;34;20193;-62
2020/12/23 14:34:37;;;;;;;10.77;9.68;;;;;;;;;;4186814;34;20162;-64
2020/12/23 14:37:03;;;;;;;9.77;8.88;;;;;;;;;;4205559;34;20106;-64
2020/12/23 14:39:29;;;;;;;10.65;9.65;;;;;;;;;;4205466;34;20100;-64
2020/12/23 14:41:55;;;;;;;9.77;8.88;;;;;;;;;;4200451;34;20106;-64
2020/12/23 14:44:21;;;;;;;9.40;8.50;;;;;;;;;;4189806;34;20145;-64